N119T KPVD-KTTN
Flight info
| Callsign | N119T |
|---|---|
| Flight time | N/A |
| Altitude | 16000 |
| Route | YANTC T224 DIXIE T438 ARD |
| Aircraft | BE9L/L-SBDFGR/C |
Departure
| Time | 2026-05-07 01:37 |
|---|---|
| Airport | Rhode Island T. F. Green International Airport (KPVD) |
Arrival
| Time | N/A |
|---|---|
| Airport | Trenton Mercer Airport (KTTN) |
| Time | Latitude | Longitude | Altitude | Speed | Heading |
|---|---|---|---|---|---|
| 2026-05-07 01:19 | 41.73146 | -71.42902 | 63 ft | 0 kts | 178° |
| 2026-05-07 01:33 | 41.73144 | -71.42902 | 63 ft | 3 kts | 181° |
| 2026-05-07 01:34 | 41.73141 | -71.42945 | 64 ft | 9 kts | 319° |
| 2026-05-07 01:34 | 41.73181 | -71.42862 | 63 ft | 16 kts | 86° |
| 2026-05-07 01:34 | 41.73126 | -71.42750 | 60 ft | 15 kts | 167° |
| 2026-05-07 01:34 | 41.73104 | -71.42744 | 60 ft | 0 kts | 168° |
| 2026-05-07 01:35 | 41.73099 | -71.42742 | 60 ft | 0 kts | 168° |
| 2026-05-07 01:35 | 41.73044 | -71.42727 | 60 ft | 18 kts | 164° |
| 2026-05-07 01:35 | 41.72939 | -71.42623 | 59 ft | 20 kts | 96° |
| 2026-05-07 01:36 | 41.72948 | -71.42437 | 57 ft | 20 kts | 86° |
| 2026-05-07 01:36 | 41.72956 | -71.42295 | 55 ft | 0 kts | 87° |
| 2026-05-07 01:36 | 41.72954 | -71.42256 | 54 ft | 13 kts | 96° |
| 2026-05-07 01:37 | 41.72875 | -71.42242 | 54 ft | 19 kts | 212° |
| 2026-05-07 01:37 | 41.72531 | -71.42530 | 59 ft | 96 kts | 212° |
| 2026-05-07 01:37 | 41.71916 | -71.43044 | 392 ft | 110 kts | 210° |
| 2026-05-07 01:37 | 41.71232 | -71.43553 | 883 ft | 117 kts | 208° |
| 2026-05-07 01:38 | 41.70510 | -71.44061 | 1415 ft | 120 kts | 207° |
| 2026-05-07 01:38 | 41.69738 | -71.44521 | 1912 ft | 124 kts | 204° |
| 2026-05-07 01:38 | 41.69060 | -71.45206 | 2396 ft | 127 kts | 227° |
| 2026-05-07 01:38 | 41.68586 | -71.46415 | 2356 ft | 163 kts | 252° |
| 2026-05-07 01:39 | 41.68360 | -71.47938 | 2595 ft | 169 kts | 253° |
| 2026-05-07 01:39 | 41.68112 | -71.49363 | 3247 ft | 150 kts | 251° |
| 2026-05-07 01:39 | 41.67868 | -71.50613 | 3934 ft | 132 kts | 249° |
| 2026-05-07 01:39 | 41.67575 | -71.51867 | 4121 ft | 149 kts | 247° |
| 2026-05-07 01:40 | 41.67274 | -71.53184 | 4552 ft | 147 kts | 249° |
| 2026-05-07 01:40 | 41.66985 | -71.54406 | 5132 ft | 135 kts | 246° |
| 2026-05-07 01:40 | 41.66697 | -71.55537 | 5641 ft | 129 kts | 245° |
| 2026-05-07 01:40 | 41.66398 | -71.56693 | 5937 ft | 140 kts | 245° |
| 2026-05-07 01:41 | 41.66076 | -71.57967 | 6090 ft | 153 kts | 246° |
| 2026-05-07 01:41 | 41.65734 | -71.59346 | 6364 ft | 158 kts | 247° |
| 2026-05-07 01:41 | 41.65391 | -71.60729 | 6713 ft | 157 kts | 246° |
| 2026-05-07 01:41 | 41.65060 | -71.62055 | 7230 ft | 146 kts | 246° |
| 2026-05-07 01:42 | 41.64752 | -71.63265 | 7813 ft | 132 kts | 245° |
| 2026-05-07 01:42 | 41.64475 | -71.64336 | 8451 ft | 115 kts | 243° |
| 2026-05-07 01:42 | 41.64207 | -71.65311 | 8679 ft | 131 kts | 242° |
| 2026-05-07 01:42 | 41.63866 | -71.66633 | 8528 ft | 162 kts | 246° |
| 2026-05-07 01:43 | 41.63506 | -71.68111 | 8657 ft | 171 kts | 246° |
| 2026-05-07 01:43 | 41.63133 | -71.69637 | 8818 ft | 173 kts | 246° |
| 2026-05-07 01:43 | 41.62766 | -71.71121 | 9233 ft | 162 kts | 245° |
| 2026-05-07 01:43 | 41.62422 | -71.72482 | 9674 ft | 152 kts | 244° |
| 2026-05-07 01:44 | 41.62090 | -71.73777 | 10164 ft | 141 kts | 243° |
| 2026-05-07 01:44 | 41.61786 | -71.74946 | 10692 ft | 128 kts | 241° |
| 2026-05-07 01:44 | 41.61514 | -71.75977 | 11269 ft | 112 kts | 239° |
| 2026-05-07 01:44 | 41.61258 | -71.76905 | 11674 ft | 109 kts | 238° |
| 2026-05-07 01:45 | 41.60974 | -71.77922 | 11851 ft | 125 kts | 240° |
| 2026-05-07 01:45 | 41.60667 | -71.79100 | 11921 ft | 145 kts | 242° |
| 2026-05-07 01:45 | 41.60332 | -71.80446 | 11892 ft | 164 kts | 243° |
| 2026-05-07 01:45 | 41.59959 | -71.81978 | 11792 ft | 181 kts | 244° |
| 2026-05-07 01:46 | 41.59566 | -71.83603 | 11830 ft | 185 kts | 244° |
| 2026-05-07 01:46 | 41.59175 | -71.85201 | 12053 ft | 180 kts | 244° |
| 2026-05-07 01:46 | 41.58782 | -71.86770 | 12338 ft | 172 kts | 243° |
| 2026-05-07 01:46 | 41.58413 | -71.88219 | 12654 ft | 165 kts | 242° |
| 2026-05-07 01:47 | 41.58045 | -71.89642 | 12988 ft | 158 kts | 242° |
| 2026-05-07 01:47 | 41.57692 | -71.90995 | 13276 ft | 154 kts | 241° |
| 2026-05-07 01:47 | 41.57346 | -71.92326 | 13577 ft | 151 kts | 241° |
| 2026-05-07 01:47 | 41.57005 | -71.93630 | 13889 ft | 147 kts | 240° |
| 2026-05-07 01:48 | 41.56675 | -71.94893 | 14208 ft | 143 kts | 240° |
| 2026-05-07 01:48 | 41.56348 | -71.96137 | 14485 ft | 142 kts | 240° |
| 2026-05-07 01:48 | 41.56029 | -71.97357 | 14758 ft | 142 kts | 240° |
| 2026-05-07 01:48 | 41.55696 | -71.98627 | 14952 ft | 148 kts | 240° |
| 2026-05-07 01:49 | 41.55257 | -71.99833 | 15081 ft | 143 kts | 214° |
| 2026-05-07 01:49 | 41.54509 | -72.00761 | 15193 ft | 152 kts | 219° |
| 2026-05-07 01:49 | 41.53759 | -72.01783 | 15299 ft | 155 kts | 219° |
| 2026-05-07 01:49 | 41.52989 | -72.02813 | 15432 ft | 157 kts | 219° |
| 2026-05-07 01:50 | 41.52207 | -72.03847 | 15549 ft | 158 kts | 219° |
| 2026-05-07 01:50 | 41.51426 | -72.04871 | 15644 ft | 161 kts | 219° |
| 2026-05-07 01:50 | 41.50619 | -72.05924 | 15748 ft | 162 kts | 218° |
| 2026-05-07 01:50 | 41.49829 | -72.06947 | 15890 ft | 160 kts | 218° |
| 2026-05-07 01:51 | 41.48976 | -72.08027 | 15539 ft | 183 kts | 219° |
| 2026-05-07 01:51 | 41.48148 | -72.09189 | 15843 ft | 164 kts | 222° |
| 2026-05-07 01:51 | 41.47404 | -72.10307 | 15978 ft | 165 kts | 221° |
| 2026-05-07 01:51 | 41.46578 | -72.11478 | 15834 ft | 178 kts | 220° |
| 2026-05-07 01:52 | 41.45735 | -72.12676 | 15948 ft | 176 kts | 222° |
| 2026-05-07 01:52 | 41.44811 | -72.13689 | 16032 ft | 171 kts | 206° |
| 2026-05-07 01:52 | 41.43774 | -72.14523 | 15856 ft | 184 kts | 211° |
| 2026-05-07 01:52 | 41.42770 | -72.15543 | 15941 ft | 181 kts | 213° |
| 2026-05-07 01:53 | 41.41775 | -72.16573 | 15963 ft | 182 kts | 214° |
| 2026-05-07 01:53 | 41.40856 | -72.17758 | 15933 ft | 189 kts | 227° |
| 2026-05-07 01:53 | 41.40264 | -72.19352 | 15809 ft | 204 kts | 244° |
| 2026-05-07 01:53 | 41.40042 | -72.21246 | 15858 ft | 208 kts | 258° |
| 2026-05-07 01:54 | 41.40091 | -72.23203 | 15866 ft | 211 kts | 264° |
| 2026-05-07 01:54 | 41.40122 | -72.23827 | 15942 ft | 208 kts | 264° |
| 2026-05-07 01:54 | 41.40113 | -72.26962 | 15968 ft | 205 kts | 258° |
| 2026-05-07 01:54 | 41.40085 | -72.28877 | 15976 ft | 207 kts | 260° |
| 2026-05-07 01:55 | 41.40023 | -72.30765 | 15966 ft | 198 kts | 244° |
| 2026-05-07 01:55 | 41.39148 | -72.31966 | 15919 ft | 183 kts | 197° |
| 2026-05-07 01:55 | 41.37931 | -72.31700 | 15869 ft | 195 kts | 152° |